sensor_id;sensor_type;location;lat;lon;timestamp;P1;durP1;ratioP1;P2;durP2;ratioP2
78027;SDS011;67235;45.638;11.714;2023-04-25T00:01:33;8.85;;;3.92;;
78027;SDS011;67235;45.638;11.714;2023-04-25T00:04:01;6.77;;;3.23;;
78027;SDS011;67235;45.638;11.714;2023-04-25T00:06:27;8.27;;;3.72;;
78027;SDS011;67235;45.638;11.714;2023-04-25T00:08:54;7.43;;;3.55;;
78027;SDS011;67235;45.638;11.714;2023-04-25T00:11:21;6.85;;;3.33;;
78027;SDS011;67235;45.638;11.714;2023-04-25T00:13:48;9.10;;;3.58;;
78027;SDS011;67235;45.638;11.714;2023-04-25T00:16:14;5.93;;;3.03;;
78027;SDS011;67235;45.638;11.714;2023-04-25T00:18:41;7.00;;;3.25;;
78027;SDS011;67235;45.638;11.714;2023-04-25T00:21:07;6.35;;;3.30;;
78027;SDS011;67235;45.638;11.714;2023-04-25T00:23:33;6.32;;;3.00;;
78027;SDS011;67235;45.638;11.714;2023-04-25T00:26:01;6.50;;;3.20;;
78027;SDS011;67235;45.638;11.714;2023-04-25T00:28:27;7.40;;;3.05;;
78027;SDS011;67235;45.638;11.714;2023-04-25T00:30:53;8.63;;;3.45;;
78027;SDS011;67235;45.638;11.714;2023-04-25T00:33:19;6.40;;;3.10;;
78027;SDS011;67235;45.638;11.714;2023-04-25T00:35:46;6.78;;;2.75;;
78027;SDS011;67235;45.638;11.714;2023-04-25T00:38:11;6.10;;;2.80;;
78027;SDS011;67235;45.638;11.714;2023-04-25T00:40:37;5.90;;;2.85;;
78027;SDS011;67235;45.638;11.714;2023-04-25T00:43:03;6.03;;;2.92;;
78027;SDS011;67235;45.638;11.714;2023-04-25T00:45:29;7.97;;;2.85;;
78027;SDS011;67235;45.638;11.714;2023-04-25T00:47:56;7.85;;;3.35;;
78027;SDS011;67235;45.638;11.714;2023-04-25T00:50:22;6.67;;;3.20;;
78027;SDS011;67235;45.638;11.714;2023-04-25T00:52:48;6.13;;;2.75;;
78027;SDS011;67235;45.638;11.714;2023-04-25T00:55:14;7.30;;;3.40;;
78027;SDS011;67235;45.638;11.714;2023-04-25T00:57:40;6.75;;;3.20;;
78027;SDS011;67235;45.638;11.714;2023-04-25T01:00:07;6.03;;;2.53;;
78027;SDS011;67235;45.638;11.714;2023-04-25T01:02:38;6.13;;;2.40;;
78027;SDS011;67235;45.638;11.714;2023-04-25T01:05:06;5.85;;;2.47;;
78027;SDS011;67235;45.638;11.714;2023-04-25T01:07:32;5.72;;;2.72;;
78027;SDS011;67235;45.638;11.714;2023-04-25T01:09:59;6.05;;;3.08;;
78027;SDS011;67235;45.638;11.714;2023-04-25T01:12:25;6.40;;;3.00;;
78027;SDS011;67235;45.638;11.714;2023-04-25T01:14:50;6.15;;;2.85;;
78027;SDS011;67235;45.638;11.714;2023-04-25T01:17:17;6.72;;;3.33;;
78027;SDS011;67235;45.638;11.714;2023-04-25T01:19:43;6.95;;;3.10;;
78027;SDS011;67235;45.638;11.714;2023-04-25T01:22:11;6.93;;;3.20;;
78027;SDS011;67235;45.638;11.714;2023-04-25T01:24:37;6.47;;;3.08;;
78027;SDS011;67235;45.638;11.714;2023-04-25T01:27:03;7.43;;;3.55;;
78027;SDS011;67235;45.638;11.714;2023-04-25T01:29:29;6.75;;;3.03;;
78027;SDS011;67235;45.638;11.714;2023-04-25T01:31:55;8.87;;;4.03;;
78027;SDS011;67235;45.638;11.714;2023-04-25T01:34:23;6.80;;;3.45;;
78027;SDS011;67235;45.638;11.714;2023-04-25T01:36:49;9.75;;;4.07;;
78027;SDS011;67235;45.638;11.714;2023-04-25T01:39:18;6.32;;;3.08;;
78027;SDS011;67235;45.638;11.714;2023-04-25T01:41:45;6.57;;;3.10;;
78027;SDS011;67235;45.638;11.714;2023-04-25T01:44:11;7.50;;;3.10;;
78027;SDS011;67235;45.638;11.714;2023-04-25T01:46:37;6.80;;;3.38;;
78027;SDS011;67235;45.638;11.714;2023-04-25T01:49:03;6.82;;;3.28;;
78027;SDS011;67235;45.638;11.714;2023-04-25T01:51:29;6.38;;;2.70;;
78027;SDS011;67235;45.638;11.714;2023-04-25T01:53:57;6.20;;;2.90;;
78027;SDS011;67235;45.638;11.714;2023-04-25T01:56:23;5.55;;;2.55;;
78027;SDS011;67235;45.638;11.714;2023-04-25T01:58:49;6.47;;;2.70;;
78027;SDS011;67235;45.638;11.714;2023-04-25T02:01:15;6.90;;;2.60;;
78027;SDS011;67235;45.638;11.714;2023-04-25T02:03:40;6.03;;;2.67;;
78027;SDS011;67235;45.638;11.714;2023-04-25T02:06:06;5.80;;;2.88;;
78027;SDS011;67235;45.638;11.714;2023-04-25T02:08:32;6.05;;;2.92;;
78027;SDS011;67235;45.638;11.714;2023-04-25T02:10:58;6.10;;;2.97;;
78027;SDS011;67235;45.638;11.714;2023-04-25T02:13:24;7.07;;;2.78;;
78027;SDS011;67235;45.638;11.714;2023-04-25T02:15:50;6.53;;;2.70;;
78027;SDS011;67235;45.638;11.714;2023-04-25T02:18:15;6.82;;;2.85;;
78027;SDS011;67235;45.638;11.714;2023-04-25T02:20:42;6.63;;;2.80;;
78027;SDS011;67235;45.638;11.714;2023-04-25T02:23:08;6.77;;;2.60;;
78027;SDS011;67235;45.638;11.714;2023-04-25T02:25:34;6.05;;;2.75;;
78027;SDS011;67235;45.638;11.714;2023-04-25T02:27:59;7.88;;;3.35;;
78027;SDS011;67235;45.638;11.714;2023-04-25T02:30:25;5.33;;;2.53;;
78027;SDS011;67235;45.638;11.714;2023-04-25T02:32:51;6.68;;;2.92;;
78027;SDS011;67235;45.638;11.714;2023-04-25T02:35:17;4.77;;;2.03;;
78027;SDS011;67235;45.638;11.714;2023-04-25T02:37:43;5.30;;;2.13;;
78027;SDS011;67235;45.638;11.714;2023-04-25T02:40:09;6.50;;;2.40;;
78027;SDS011;67235;45.638;11.714;2023-04-25T02:42:35;5.47;;;2.22;;
78027;SDS011;67235;45.638;11.714;2023-04-25T02:45:01;5.70;;;2.50;;
78027;SDS011;67235;45.638;11.714;2023-04-25T02:47:28;6.45;;;2.60;;
78027;SDS011;67235;45.638;11.714;2023-04-25T02:49:54;6.07;;;2.78;;
78027;SDS011;67235;45.638;11.714;2023-04-25T02:52:20;5.23;;;2.10;;
78027;SDS011;67235;45.638;11.714;2023-04-25T02:54:46;5.15;;;1.85;;
78027;SDS011;67235;45.638;11.714;2023-04-25T02:57:12;4.90;;;2.05;;
78027;SDS011;67235;45.638;11.714;2023-04-25T02:59:38;5.50;;;2.20;;
78027;SDS011;67235;45.638;11.714;2023-04-25T03:02:04;4.88;;;2.00;;
78027;SDS011;67235;45.638;11.714;2023-04-25T03:04:30;4.95;;;2.00;;
78027;SDS011;67235;45.638;11.714;2023-04-25T03:06:55;6.80;;;2.40;;
78027;SDS011;67235;45.638;11.714;2023-04-25T03:09:21;5.10;;;2.20;;
78027;SDS011;67235;45.638;11.714;2023-04-25T03:11:47;5.72;;;2.40;;
78027;SDS011;67235;45.638;11.714;2023-04-25T03:14:13;5.07;;;2.10;;
78027;SDS011;67235;45.638;11.714;2023-04-25T03:16:39;6.18;;;2.10;;
78027;SDS011;67235;45.638;11.714;2023-04-25T03:19:05;5.88;;;2.40;;
78027;SDS011;67235;45.638;11.714;2023-04-25T03:21:31;5.53;;;2.00;;
78027;SDS011;67235;45.638;11.714;2023-04-25T03:23:59;5.57;;;2.50;;
78027;SDS011;67235;45.638;11.714;2023-04-25T03:26:26;5.68;;;2.20;;
78027;SDS011;67235;45.638;11.714;2023-04-25T03:28:51;6.22;;;2.10;;
78027;SDS011;67235;45.638;11.714;2023-04-25T03:31:17;5.38;;;2.08;;
78027;SDS011;67235;45.638;11.714;2023-04-25T03:33:43;5.25;;;1.90;;
78027;SDS011;67235;45.638;11.714;2023-04-25T03:36:09;6.43;;;2.10;;
78027;SDS011;67235;45.638;11.714;2023-04-25T03:38:35;5.50;;;2.45;;
78027;SDS011;67235;45.638;11.714;2023-04-25T03:41:01;5.10;;;1.90;;
78027;SDS011;67235;45.638;11.714;2023-04-25T03:43:27;5.32;;;1.92;;
78027;SDS011;67235;45.638;11.714;2023-04-25T03:45:53;7.05;;;1.90;;
78027;SDS011;67235;45.638;11.714;2023-04-25T03:48:19;5.13;;;1.90;;
78027;SDS011;67235;45.638;11.714;2023-04-25T03:50:49;5.47;;;1.73;;
78027;SDS011;67235;45.638;11.714;2023-04-25T03:53:15;4.93;;;1.80;;
78027;SDS011;67235;45.638;11.714;2023-04-25T03:55:41;4.65;;;1.85;;
78027;SDS011;67235;45.638;11.714;2023-04-25T03:58:07;4.55;;;1.60;;
78027;SDS011;67235;45.638;11.714;2023-04-25T04:00:34;4.80;;;2.00;;
78027;SDS011;67235;45.638;11.714;2023-04-25T04:03:00;5.65;;;2.03;;
78027;SDS011;67235;45.638;11.714;2023-04-25T04:05:26;4.95;;;1.73;;
78027;SDS011;67235;45.638;11.714;2023-04-25T04:07:52;5.50;;;2.20;;
78027;SDS011;67235;45.638;11.714;2023-04-25T04:10:18;5.25;;;2.10;;
78027;SDS011;67235;45.638;11.714;2023-04-25T04:12:44;5.00;;;1.92;;
78027;SDS011;67235;45.638;11.714;2023-04-25T04:15:10;4.93;;;1.95;;
78027;SDS011;67235;45.638;11.714;2023-04-25T04:17:37;5.63;;;2.30;;
78027;SDS011;67235;45.638;11.714;2023-04-25T04:20:03;5.22;;;2.20;;
78027;SDS011;67235;45.638;11.714;2023-04-25T04:22:30;5.22;;;2.03;;
78027;SDS011;67235;45.638;11.714;2023-04-25T04:24:56;5.85;;;2.17;;
78027;SDS011;67235;45.638;11.714;2023-04-25T04:27:22;5.20;;;2.10;;
78027;SDS011;67235;45.638;11.714;2023-04-25T04:29:48;4.88;;;2.20;;
78027;SDS011;67235;45.638;11.714;2023-04-25T04:32:16;6.50;;;2.00;;
78027;SDS011;67235;45.638;11.714;2023-04-25T04:34:42;5.47;;;2.00;;
78027;SDS011;67235;45.638;11.714;2023-04-25T04:37:08;5.07;;;2.00;;
78027;SDS011;67235;45.638;11.714;2023-04-25T04:39:35;5.90;;;2.45;;
78027;SDS011;67235;45.638;11.714;2023-04-25T04:42:02;5.80;;;2.00;;
78027;SDS011;67235;45.638;11.714;2023-04-25T04:44:29;6.85;;;2.20;;
78027;SDS011;67235;45.638;11.714;2023-04-25T04:46:58;5.47;;;2.30;;
78027;SDS011;67235;45.638;11.714;2023-04-25T04:49:24;5.67;;;2.40;;
78027;SDS011;67235;45.638;11.714;2023-04-25T04:51:51;5.80;;;2.08;;
78027;SDS011;67235;45.638;11.714;2023-04-25T04:54:17;7.18;;;2.78;;
78027;SDS011;67235;45.638;11.714;2023-04-25T04:56:43;6.40;;;2.57;;
78027;SDS011;67235;45.638;11.714;2023-04-25T04:59:09;6.95;;;2.90;;
78027;SDS011;67235;45.638;11.714;2023-04-25T05:01:35;7.60;;;2.33;;
78027;SDS011;67235;45.638;11.714;2023-04-25T05:04:01;4.80;;;1.92;;
78027;SDS011;67235;45.638;11.714;2023-04-25T05:06:28;5.60;;;2.00;;
78027;SDS011;67235;45.638;11.714;2023-04-25T05:08:55;5.50;;;2.08;;
78027;SDS011;67235;45.638;11.714;2023-04-25T05:11:22;7.53;;;2.08;;
78027;SDS011;67235;45.638;11.714;2023-04-25T05:13:52;5.57;;;2.38;;
78027;SDS011;67235;45.638;11.714;2023-04-25T05:16:18;8.05;;;2.63;;
78027;SDS011;67235;45.638;11.714;2023-04-25T05:18:45;7.13;;;2.50;;
78027;SDS011;67235;45.638;11.714;2023-04-25T05:21:11;5.57;;;2.25;;
78027;SDS011;67235;45.638;11.714;2023-04-25T05:23:37;5.00;;;2.10;;
78027;SDS011;67235;45.638;11.714;2023-04-25T05:26:03;4.60;;;2.00;;
78027;SDS011;67235;45.638;11.714;2023-04-25T05:28:29;5.67;;;2.00;;
78027;SDS011;67235;45.638;11.714;2023-04-25T05:30:55;5.68;;;2.33;;
78027;SDS011;67235;45.638;11.714;2023-04-25T05:33:21;4.90;;;1.85;;
78027;SDS011;67235;45.638;11.714;2023-04-25T05:35:46;5.87;;;1.93;;
78027;SDS011;67235;45.638;11.714;2023-04-25T05:38:12;5.15;;;2.00;;
78027;SDS011;67235;45.638;11.714;2023-04-25T05:40:38;7.20;;;2.70;;
78027;SDS011;67235;45.638;11.714;2023-04-25T05:43:04;5.18;;;2.10;;
78027;SDS011;67235;45.638;11.714;2023-04-25T05:45:30;5.55;;;1.83;;
78027;SDS011;67235;45.638;11.714;2023-04-25T05:47:55;6.40;;;2.20;;
78027;SDS011;67235;45.638;11.714;2023-04-25T05:50:21;5.65;;;2.20;;
78027;SDS011;67235;45.638;11.714;2023-04-25T05:52:47;5.73;;;2.30;;
78027;SDS011;67235;45.638;11.714;2023-04-25T05:55:13;6.45;;;2.33;;
78027;SDS011;67235;45.638;11.714;2023-04-25T05:57:39;6.30;;;2.55;;
78027;SDS011;67235;45.638;11.714;2023-04-25T06:00:08;7.20;;;3.40;;
78027;SDS011;67235;45.638;11.714;2023-04-25T06:02:34;6.63;;;2.80;;
78027;SDS011;67235;45.638;11.714;2023-04-25T06:05:00;7.97;;;3.58;;
78027;SDS011;67235;45.638;11.714;2023-04-25T06:07:28;8.35;;;3.67;;
78027;SDS011;67235;45.638;11.714;2023-04-25T06:09:56;6.68;;;3.30;;
78027;SDS011;67235;45.638;11.714;2023-04-25T06:12:23;6.22;;;2.97;;
78027;SDS011;67235;45.638;11.714;2023-04-25T06:14:52;6.03;;;2.67;;
78027;SDS011;67235;45.638;11.714;2023-04-25T06:17:18;5.50;;;2.55;;
78027;SDS011;67235;45.638;11.714;2023-04-25T06:19:44;6.65;;;2.63;;
78027;SDS011;67235;45.638;11.714;2023-04-25T06:22:10;5.60;;;2.60;;
78027;SDS011;67235;45.638;11.714;2023-04-25T06:24:35;6.70;;;2.95;;
78027;SDS011;67235;45.638;11.714;2023-04-25T06:27:01;6.37;;;2.57;;
78027;SDS011;67235;45.638;11.714;2023-04-25T06:29:29;5.45;;;2.67;;
78027;SDS011;67235;45.638;11.714;2023-04-25T06:31:58;5.43;;;2.58;;
78027;SDS011;67235;45.638;11.714;2023-04-25T06:34:24;5.07;;;2.20;;
78027;SDS011;67235;45.638;11.714;2023-04-25T06:36:50;5.57;;;2.47;;
78027;SDS011;67235;45.638;11.714;2023-04-25T06:39:16;5.75;;;2.28;;
78027;SDS011;67235;45.638;11.714;2023-04-25T06:41:42;7.38;;;3.92;;
78027;SDS011;67235;45.638;11.714;2023-04-25T06:44:07;11.88;;;5.57;;
78027;SDS011;67235;45.638;11.714;2023-04-25T06:46:33;13.55;;;6.25;;
78027;SDS011;67235;45.638;11.714;2023-04-25T06:49:04;8.70;;;4.47;;
78027;SDS011;67235;45.638;11.714;2023-04-25T06:51:47;5.95;;;2.67;;
78027;SDS011;67235;45.638;11.714;2023-04-25T06:54:21;5.20;;;1.80;;
78027;SDS011;67235;45.638;11.714;2023-04-25T06:56:50;4.40;;;1.80;;
78027;SDS011;67235;45.638;11.714;2023-04-25T06:59:16;4.20;;;1.33;;
78027;SDS011;67235;45.638;11.714;2023-04-25T07:01:42;5.47;;;1.73;;
78027;SDS011;67235;45.638;11.714;2023-04-25T07:04:07;4.97;;;1.48;;
78027;SDS011;67235;45.638;11.714;2023-04-25T07:06:33;5.17;;;1.57;;
78027;SDS011;67235;45.638;11.714;2023-04-25T07:08:59;4.00;;;1.58;;
78027;SDS011;67235;45.638;11.714;2023-04-25T07:11:25;4.15;;;1.35;;
78027;SDS011;67235;45.638;11.714;2023-04-25T07:13:52;5.80;;;1.50;;
78027;SDS011;67235;45.638;11.714;2023-04-25T07:16:18;7.28;;;2.17;;
78027;SDS011;67235;45.638;11.714;2023-04-25T07:18:44;4.40;;;1.58;;
78027;SDS011;67235;45.638;11.714;2023-04-25T07:21:14;4.50;;;1.10;;
78027;SDS011;67235;45.638;11.714;2023-04-25T07:23:43;3.60;;;1.20;;
78027;SDS011;67235;45.638;11.714;2023-04-25T07:26:09;4.35;;;1.35;;
78027;SDS011;67235;45.638;11.714;2023-04-25T07:28:35;5.95;;;1.38;;
78027;SDS011;67235;45.638;11.714;2023-04-25T07:31:00;5.13;;;1.23;;
78027;SDS011;67235;45.638;11.714;2023-04-25T07:33:27;5.03;;;1.13;;
78027;SDS011;67235;45.638;11.714;2023-04-25T07:35:53;4.95;;;1.60;;
78027;SDS011;67235;45.638;11.714;2023-04-25T07:38:19;5.15;;;1.50;;
78027;SDS011;67235;45.638;11.714;2023-04-25T07:40:48;5.77;;;1.67;;
78027;SDS011;67235;45.638;11.714;2023-04-25T07:43:14;4.65;;;1.50;;
78027;SDS011;67235;45.638;11.714;2023-04-25T07:45:45;5.03;;;1.70;;
78027;SDS011;67235;45.638;11.714;2023-04-25T07:48:16;4.70;;;1.70;;
78027;SDS011;67235;45.638;11.714;2023-04-25T07:50:46;6.27;;;1.70;;
78027;SDS011;67235;45.638;11.714;2023-04-25T07:53:12;4.57;;;1.80;;
78027;SDS011;67235;45.638;11.714;2023-04-25T07:55:43;5.60;;;2.10;;
78027;SDS011;67235;45.638;11.714;2023-04-25T07:58:09;6.22;;;1.70;;
78027;SDS011;67235;45.638;11.714;2023-04-25T08:00:37;4.70;;;1.80;;
78027;SDS011;67235;45.638;11.714;2023-04-25T08:03:09;6.00;;;1.80;;
78027;SDS011;67235;45.638;11.714;2023-04-25T08:05:34;5.25;;;2.15;;
78027;SDS011;67235;45.638;11.714;2023-04-25T08:08:00;6.45;;;2.78;;
78027;SDS011;67235;45.638;11.714;2023-04-25T08:10:27;7.25;;;2.53;;
78027;SDS011;67235;45.638;11.714;2023-04-25T08:12:53;6.22;;;2.85;;
78027;SDS011;67235;45.638;11.714;2023-04-25T08:15:18;9.57;;;4.20;;
78027;SDS011;67235;45.638;11.714;2023-04-25T08:17:45;6.13;;;2.63;;
78027;SDS011;67235;45.638;11.714;2023-04-25T08:20:11;7.53;;;2.90;;
78027;SDS011;67235;45.638;11.714;2023-04-25T08:22:37;7.20;;;2.78;;
78027;SDS011;67235;45.638;11.714;2023-04-25T08:25:03;8.37;;;3.20;;
78027;SDS011;67235;45.638;11.714;2023-04-25T08:27:29;7.22;;;3.85;;
78027;SDS011;67235;45.638;11.714;2023-04-25T08:29:55;9.70;;;4.47;;
78027;SDS011;67235;45.638;11.714;2023-04-25T08:32:21;7.70;;;3.10;;
78027;SDS011;67235;45.638;11.714;2023-04-25T08:34:47;5.38;;;2.45;;
78027;SDS011;67235;45.638;11.714;2023-04-25T08:37:12;4.72;;;1.67;;
78027;SDS011;67235;45.638;11.714;2023-04-25T08:39:38;5.23;;;2.00;;
78027;SDS011;67235;45.638;11.714;2023-04-25T08:42:05;6.80;;;2.22;;
78027;SDS011;67235;45.638;11.714;2023-04-25T08:44:35;4.93;;;2.00;;
78027;SDS011;67235;45.638;11.714;2023-04-25T08:47:02;6.27;;;2.17;;
78027;SDS011;67235;45.638;11.714;2023-04-25T08:49:32;5.10;;;2.58;;
78027;SDS011;67235;45.638;11.714;2023-04-25T08:52:03;5.72;;;2.50;;
78027;SDS011;67235;45.638;11.714;2023-04-25T08:54:32;5.78;;;2.42;;
78027;SDS011;67235;45.638;11.714;2023-04-25T08:57:01;6.35;;;2.70;;
78027;SDS011;67235;45.638;11.714;2023-04-25T08:59:29;6.23;;;2.77;;
78027;SDS011;67235;45.638;11.714;2023-04-25T09:02:00;7.05;;;2.97;;
78027;SDS011;67235;45.638;11.714;2023-04-25T09:04:27;5.63;;;2.50;;
78027;SDS011;67235;45.638;11.714;2023-04-25T09:06:58;4.43;;;1.00;;
78027;SDS011;67235;45.638;11.714;2023-04-25T09:09:23;4.70;;;1.30;;
78027;SDS011;67235;45.638;11.714;2023-04-25T09:11:50;4.38;;;1.23;;
78027;SDS011;67235;45.638;11.714;2023-04-25T09:14:20;3.95;;;1.10;;
78027;SDS011;67235;45.638;11.714;2023-04-25T09:19:26;4.07;;;1.30;;
78027;SDS011;67235;45.638;11.714;2023-04-25T09:21:57;5.10;;;1.80;;
78027;SDS011;67235;45.638;11.714;2023-04-25T09:27:03;5.05;;;1.40;;
78027;SDS011;67235;45.638;11.714;2023-04-25T09:29:30;4.07;;;1.60;;
78027;SDS011;67235;45.638;11.714;2023-04-25T09:32:10;3.63;;;1.30;;
78027;SDS011;67235;45.638;11.714;2023-04-25T09:34:42;3.67;;;1.05;;
78027;SDS011;67235;45.638;11.714;2023-04-25T09:37:09;2.53;;;0.60;;
78027;SDS011;67235;45.638;11.714;2023-04-25T09:39:39;3.28;;;0.73;;
78027;SDS011;67235;45.638;11.714;2023-04-25T09:42:05;2.92;;;0.70;;
78027;SDS011;67235;45.638;11.714;2023-04-25T09:44:31;3.00;;;0.70;;
78027;SDS011;67235;45.638;11.714;2023-04-25T09:46:57;3.00;;;0.60;;
78027;SDS011;67235;45.638;11.714;2023-04-25T09:49:24;2.90;;;0.60;;
78027;SDS011;67235;45.638;11.714;2023-04-25T09:51:57;2.50;;;0.52;;
78027;SDS011;67235;45.638;11.714;2023-04-25T09:54:24;2.80;;;0.60;;
78027;SDS011;67235;45.638;11.714;2023-04-25T09:56:51;3.20;;;0.60;;
78027;SDS011;67235;45.638;11.714;2023-04-25T09:59:21;3.42;;;0.70;;
78027;SDS011;67235;45.638;11.714;2023-04-25T10:01:50;4.35;;;0.90;;
78027;SDS011;67235;45.638;11.714;2023-04-25T10:04:25;3.63;;;0.70;;
78027;SDS011;67235;45.638;11.714;2023-04-25T10:07:30;2.55;;;0.70;;
78027;SDS011;67235;45.638;11.714;2023-04-25T10:09:59;3.30;;;0.90;;
78027;SDS011;67235;45.638;11.714;2023-04-25T10:12:28;3.00;;;0.68;;
78027;SDS011;67235;45.638;11.714;2023-04-25T10:14:54;3.28;;;0.82;;
78027;SDS011;67235;45.638;11.714;2023-04-25T10:17:20;3.55;;;0.80;;
78027;SDS011;67235;45.638;11.714;2023-04-25T10:19:47;7.60;;;1.10;;
78027;SDS011;67235;45.638;11.714;2023-04-25T10:22:14;3.42;;;0.90;;
78027;SDS011;67235;45.638;11.714;2023-04-25T10:24:56;3.33;;;1.00;;
78027;SDS011;67235;45.638;11.714;2023-04-25T10:27:22;2.88;;;0.68;;
78027;SDS011;67235;45.638;11.714;2023-04-25T10:30:03;4.07;;;0.90;;
78027;SDS011;67235;45.638;11.714;2023-04-25T10:32:31;3.47;;;0.80;;
78027;SDS011;67235;45.638;11.714;2023-04-25T10:35:06;3.70;;;1.00;;
78027;SDS011;67235;45.638;11.714;2023-04-25T10:37:36;3.60;;;0.90;;
78027;SDS011;67235;45.638;11.714;2023-04-25T10:40:08;3.20;;;0.90;;
78027;SDS011;67235;45.638;11.714;2023-04-25T10:42:35;2.77;;;0.70;;
78027;SDS011;67235;45.638;11.714;2023-04-25T10:45:01;2.85;;;0.70;;
78027;SDS011;67235;45.638;11.714;2023-04-25T10:47:36;2.95;;;0.75;;
78027;SDS011;67235;45.638;11.714;2023-04-25T10:50:10;3.40;;;0.70;;
78027;SDS011;67235;45.638;11.714;2023-04-25T10:52:39;3.47;;;0.90;;
78027;SDS011;67235;45.638;11.714;2023-04-25T10:55:07;3.10;;;0.70;;
78027;SDS011;67235;45.638;11.714;2023-04-25T10:57:41;4.90;;;0.82;;
78027;SDS011;67235;45.638;11.714;2023-04-25T11:00:18;3.58;;;0.95;;
78027;SDS011;67235;45.638;11.714;2023-04-25T11:02:53;3.97;;;0.80;;
78027;SDS011;67235;45.638;11.714;2023-04-25T11:05:33;3.27;;;0.67;;
78027;SDS011;67235;45.638;11.714;2023-04-25T11:08:00;2.65;;;0.73;;
78027;SDS011;67235;45.638;11.714;2023-04-25T11:10:31;2.92;;;0.70;;
78027;SDS011;67235;45.638;11.714;2023-04-25T11:13:00;2.88;;;0.70;;
78027;SDS011;67235;45.638;11.714;2023-04-25T11:15:26;3.42;;;1.05;;
78027;SDS011;67235;45.638;11.714;2023-04-25T11:17:54;3.27;;;0.90;;
78027;SDS011;67235;45.638;11.714;2023-04-25T11:20:21;4.20;;;0.93;;
78027;SDS011;67235;45.638;11.714;2023-04-25T11:22:47;3.50;;;0.90;;
78027;SDS011;67235;45.638;11.714;2023-04-25T11:25:14;3.85;;;0.90;;
78027;SDS011;67235;45.638;11.714;2023-04-25T11:27:54;3.50;;;1.17;;
78027;SDS011;67235;45.638;11.714;2023-04-25T11:30:22;4.72;;;1.38;;
78027;SDS011;67235;45.638;11.714;2023-04-25T11:32:49;3.63;;;1.20;;
78027;SDS011;67235;45.638;11.714;2023-04-25T11:35:17;3.60;;;1.15;;
78027;SDS011;67235;45.638;11.714;2023-04-25T11:37:43;3.53;;;1.02;;
78027;SDS011;67235;45.638;11.714;2023-04-25T11:40:10;3.50;;;1.10;;
78027;SDS011;67235;45.638;11.714;2023-04-25T11:42:37;3.30;;;1.00;;
78027;SDS011;67235;45.638;11.714;2023-04-25T11:45:10;3.97;;;1.55;;
78027;SDS011;67235;45.638;11.714;2023-04-25T11:47:36;4.68;;;1.00;;
78027;SDS011;67235;45.638;11.714;2023-04-25T11:50:03;3.50;;;1.13;;
78027;SDS011;67235;45.638;11.714;2023-04-25T11:52:47;4.25;;;1.10;;
78027;SDS011;67235;45.638;11.714;2023-04-25T11:55:16;4.15;;;1.13;;
78027;SDS011;67235;45.638;11.714;2023-04-25T11:57:45;3.20;;;0.90;;
78027;SDS011;67235;45.638;11.714;2023-04-25T12:00:16;4.63;;;1.20;;
78027;SDS011;67235;45.638;11.714;2023-04-25T12:02:46;4.18;;;0.77;;
78027;SDS011;67235;45.638;11.714;2023-04-25T12:05:15;3.22;;;1.00;;
78027;SDS011;67235;45.638;11.714;2023-04-25T12:07:41;4.72;;;0.82;;
78027;SDS011;67235;45.638;11.714;2023-04-25T12:10:08;2.80;;;0.65;;
78027;SDS011;67235;45.638;11.714;2023-04-25T12:12:42;3.15;;;0.65;;
78027;SDS011;67235;45.638;11.714;2023-04-25T12:15:12;2.47;;;0.60;;
78027;SDS011;67235;45.638;11.714;2023-04-25T12:17:48;2.43;;;0.40;;
78027;SDS011;67235;45.638;11.714;2023-04-25T12:20:16;2.92;;;0.60;;
78027;SDS011;67235;45.638;11.714;2023-04-25T12:22:51;2.90;;;0.50;;
78027;SDS011;67235;45.638;11.714;2023-04-25T12:25:35;2.72;;;0.68;;
78027;SDS011;67235;45.638;11.714;2023-04-25T12:28:14;2.63;;;0.55;;
78027;SDS011;67235;45.638;11.714;2023-04-25T12:31:05;3.07;;;0.50;;
78027;SDS011;67235;45.638;11.714;2023-04-25T12:33:32;2.55;;;0.60;;
78027;SDS011;67235;45.638;11.714;2023-04-25T12:36:02;3.17;;;0.63;;
78027;SDS011;67235;45.638;11.714;2023-04-25T12:38:35;2.95;;;0.47;;
78027;SDS011;67235;45.638;11.714;2023-04-25T12:41:02;3.10;;;0.60;;
78027;SDS011;67235;45.638;11.714;2023-04-25T12:43:28;2.20;;;0.43;;
78027;SDS011;67235;45.638;11.714;2023-04-25T12:45:55;3.30;;;0.80;;
78027;SDS011;67235;45.638;11.714;2023-04-25T12:48:21;2.55;;;0.52;;
78027;SDS011;67235;45.638;11.714;2023-04-25T12:50:48;2.97;;;0.70;;
78027;SDS011;67235;45.638;11.714;2023-04-25T12:53:24;2.43;;;0.57;;
78027;SDS011;67235;45.638;11.714;2023-04-25T12:55:50;3.65;;;0.70;;
78027;SDS011;67235;45.638;11.714;2023-04-25T12:58:16;3.28;;;0.80;;
78027;SDS011;67235;45.638;11.714;2023-04-25T13:00:43;3.65;;;0.70;;
78027;SDS011;67235;45.638;11.714;2023-04-25T13:03:10;2.80;;;0.60;;
78027;SDS011;67235;45.638;11.714;2023-04-25T13:05:37;3.10;;;0.70;;
78027;SDS011;67235;45.638;11.714;2023-04-25T13:08:03;3.20;;;0.70;;
78027;SDS011;67235;45.638;11.714;2023-04-25T13:10:29;2.83;;;0.77;;
78027;SDS011;67235;45.638;11.714;2023-04-25T13:12:55;3.60;;;1.05;;
78027;SDS011;67235;45.638;11.714;2023-04-25T13:15:22;3.25;;;0.90;;
78027;SDS011;67235;45.638;11.714;2023-04-25T13:17:48;3.67;;;1.10;;
78027;SDS011;67235;45.638;11.714;2023-04-25T13:20:14;4.13;;;1.38;;
78027;SDS011;67235;45.638;11.714;2023-04-25T13:22:42;2.92;;;0.90;;
78027;SDS011;67235;45.638;11.714;2023-04-25T13:25:10;3.40;;;1.10;;
78027;SDS011;67235;45.638;11.714;2023-04-25T13:27:36;3.73;;;1.23;;
78027;SDS011;67235;45.638;11.714;2023-04-25T13:30:04;3.53;;;1.00;;
78027;SDS011;67235;45.638;11.714;2023-04-25T13:32:34;3.72;;;1.30;;
78027;SDS011;67235;45.638;11.714;2023-04-25T13:35:10;3.60;;;1.20;;
78027;SDS011;67235;45.638;11.714;2023-04-25T13:37:37;3.67;;;1.20;;
78027;SDS011;67235;45.638;11.714;2023-04-25T13:40:04;3.83;;;1.27;;
78027;SDS011;67235;45.638;11.714;2023-04-25T13:42:34;4.00;;;1.00;;
78027;SDS011;67235;45.638;11.714;2023-04-25T13:45:00;3.90;;;1.10;;
78027;SDS011;67235;45.638;11.714;2023-04-25T13:47:26;3.55;;;1.10;;
78027;SDS011;67235;45.638;11.714;2023-04-25T13:49:52;4.43;;;1.17;;
78027;SDS011;67235;45.638;11.714;2023-04-25T13:52:19;3.53;;;1.05;;
78027;SDS011;67235;45.638;11.714;2023-04-25T13:54:45;4.38;;;1.02;;
78027;SDS011;67235;45.638;11.714;2023-04-25T13:57:11;4.00;;;1.08;;
78027;SDS011;67235;45.638;11.714;2023-04-25T13:59:38;4.35;;;1.00;;
78027;SDS011;67235;45.638;11.714;2023-04-25T14:02:06;3.50;;;1.10;;
78027;SDS011;67235;45.638;11.714;2023-04-25T14:04:32;4.20;;;1.17;;
78027;SDS011;67235;45.638;11.714;2023-04-25T14:06:58;4.25;;;1.50;;
78027;SDS011;67235;45.638;11.714;2023-04-25T14:09:24;4.25;;;1.02;;
78027;SDS011;67235;45.638;11.714;2023-04-25T14:11:52;3.40;;;1.08;;
78027;SDS011;67235;45.638;11.714;2023-04-25T14:14:18;3.70;;;1.10;;
78027;SDS011;67235;45.638;11.714;2023-04-25T14:16:45;3.65;;;1.20;;
78027;SDS011;67235;45.638;11.714;2023-04-25T14:19:13;4.13;;;1.48;;
78027;SDS011;67235;45.638;11.714;2023-04-25T14:21:43;4.03;;;1.25;;
78027;SDS011;67235;45.638;11.714;2023-04-25T14:24:09;3.83;;;1.30;;
78027;SDS011;67235;45.638;11.714;2023-04-25T14:26:38;2.75;;;0.60;;
78027;SDS011;67235;45.638;11.714;2023-04-25T14:29:04;3.67;;;0.93;;
78027;SDS011;67235;45.638;11.714;2023-04-25T14:31:32;4.00;;;0.98;;
78027;SDS011;67235;45.638;11.714;2023-04-25T14:33:58;3.50;;;0.93;;
78027;SDS011;67235;45.638;11.714;2023-04-25T14:36:24;5.80;;;0.80;;
78027;SDS011;67235;45.638;11.714;2023-04-25T14:38:51;3.30;;;1.00;;
78027;SDS011;67235;45.638;11.714;2023-04-25T14:41:17;3.47;;;0.85;;